Terminal Aerodrome Forecast
Issued by NWS

Home | Current Version | Previous Version | Text Only | Print | Product List | Glossary On
Versions: 1 2 3 4 5 6 7 8 9 10 11 12 13 14 15 16 17 18 19 20 21 22 23 24 25 26 27 28
295
FTUS43 KAPX 191720
TAFMBL
TAF
KMBL 191720Z 1918/2018 19006KT P6SM OVC005
      TEMPO 1921/2001 SCT008
     FM200100 00000KT P6SM SCT008 BKN150
     FM200500 00000KT 3SM BR OVC100
     FM201200 00000KT 1SM BR OVC010
     FM201400 10004KT 3/4SM -RA BR OVC008=

USA.gov is the U.S. government's official web portal to all federal, state and local government web resources and services.